Time;durP1;ratioP1;P1;durP2;ratioP2;P2;SDS_P1;SDS_P2;PMS_P1;PMS_P2;Temp;Humidity;BMP_temperature;BMP_pressure;BME280_temperature;BME280_humidity;BME280_pressure;Samples;Min_cycle;Max_cycle;Signal;HPM_P1;HPM_P2
2023/03/30 00:00:17;;;;;;;34.47;17.80;;;12.60;99.90;;;;;;5159461;27;20038;-73
2023/03/30 00:02:45;;;;;;;29.80;18.85;;;12.60;99.90;;;;;;5159180;27;20073;-73
2023/03/30 00:05:12;;;;;;;26.77;18.15;;;12.70;99.90;;;;;;5159396;27;20034;-73
2023/03/30 00:07:41;;;;;;;27.17;18.13;;;12.80;99.90;;;;;;5159104;27;20427;-73
2023/03/30 00:10:11;;;;;;;24.95;16.10;;;12.80;99.90;;;;;;5159290;27;20034;-73
2023/03/30 00:12:38;;;;;;;23.42;16.23;;;12.80;99.90;;;;;;5159345;27;20091;-73
2023/03/30 00:15:06;;;;;;;25.25;15.88;;;12.70;99.90;;;;;;5159220;27;20073;-73
2023/03/30 00:17:32;;;;;;;24.90;16.10;;;12.90;99.90;;;;;;5158814;27;20214;-73
2023/03/30 00:20:00;;;;;;;28.95;15.05;;;12.90;99.90;;;;;;5159162;27;20031;-73
2023/03/30 00:22:26;;;;;;;20.83;14.13;;;12.80;99.90;;;;;;5158902;27;20033;-73
2023/03/30 00:24:52;;;;;;;20.60;14.23;;;12.80;99.90;;;;;;5159024;27;20042;-73
2023/03/30 00:27:18;;;;;;;21.92;13.32;;;12.80;99.90;;;;;;5158616;27;20117;-73
2023/03/30 00:29:44;;;;;;;24.80;11.85;;;12.80;99.90;;;;;;5158396;27;20331;-73
2023/03/30 00:32:10;;;;;;;17.88;11.82;;;12.80;99.90;;;;;;5158927;27;20148;-73
2023/03/30 00:34:36;;;;;;;16.55;11.70;;;12.90;99.90;;;;;;5158646;27;20192;-73
2023/03/30 00:37:02;;;;;;;18.85;10.80;;;12.90;99.90;;;;;;5158507;27;20141;-73
2023/03/30 00:39:27;;;;;;;15.50;10.30;;;12.90;99.90;;;;;;5158855;27;20034;-73
2023/03/30 00:41:53;;;;;;;16.65;10.50;;;13.00;99.90;;;;;;5158781;27;20369;-73
2023/03/30 00:44:56;;;;;;;16.48;9.55;;;12.90;99.90;;;;;;5158411;27;20035;-73
2023/03/30 00:47:22;;;;;;;15.93;10.05;;;13.00;99.90;;;;;;5158723;27;20065;-73
2023/03/30 00:49:48;;;;;;;15.38;9.88;;;13.00;99.90;;;;;;5158413;27;20427;-73
2023/03/30 00:52:18;;;;;;;14.43;8.63;;;13.00;99.90;;;;;;5158712;27;20339;-73
2023/03/30 00:54:45;;;;;;;17.80;9.18;;;13.00;99.90;;;;;;5158601;27;20095;-73
2023/03/30 00:57:12;;;;;;;16.55;9.82;;;13.00;99.90;;;;;;5139564;27;20057;-73
2023/03/30 00:59:38;;;;;;;13.05;9.23;;;13.10;99.90;;;;;;5158570;27;20035;-73
2023/03/30 01:02:04;;;;;;;16.50;9.98;;;13.20;99.90;;;;;;5158570;27;20049;-73
2023/03/30 01:04:30;;;;;;;19.85;9.98;;;13.20;99.90;;;;;;5158518;27;20038;-73
2023/03/30 01:06:57;;;;;;;14.38;9.55;;;13.20;99.90;;;;;;5158538;27;20049;-73
2023/03/30 01:09:24;;;;;;;18.73;9.90;;;13.30;99.90;;;;;;5158464;27;20042;-73
2023/03/30 01:11:50;;;;;;;15.73;10.10;;;13.20;99.90;;;;;;5158471;27;20039;-73
2023/03/30 01:14:16;;;;;;;22.15;10.38;;;13.20;99.90;;;;;;5158439;27;20350;-73
2023/03/30 01:16:51;;;;;;;15.20;10.13;;;13.30;99.90;;;;;;5158281;27;20366;-73
2023/03/30 01:19:42;;;;;;;16.08;9.75;;;13.30;99.90;;;;;;5158370;27;20074;-73
2023/03/30 01:22:40;;;;;;;20.75;11.00;;;13.30;99.90;;;;;;5158684;27;20071;-73
2023/03/30 01:25:37;;;;;;;15.80;10.13;;;13.40;99.90;;;;;;5158372;27;20054;-73
2023/03/30 01:28:25;;;;;;;16.85;10.15;;;13.30;99.90;;;;;;5157922;27;20039;-72
2023/03/30 01:31:40;;;;;;;16.95;9.35;;;13.30;99.90;;;;;;5158360;27;20038;-73
2023/03/30 01:34:30;;;;;;;15.18;8.13;;;13.20;99.90;;;;;;5158276;27;20039;-73
2023/03/30 01:37:08;;;;;;;14.75;8.45;;;13.20;99.90;;;;;;5139993;27;20039;-72
2023/03/30 01:39:44;;;;;;;13.52;8.02;;;13.30;99.90;;;;;;5158256;27;20066;-73
2023/03/30 01:42:25;;;;;;;16.55;8.07;;;13.40;99.90;;;;;;5161613;27;20079;-73
2023/03/30 01:45:12;;;;;;;13.68;7.70;;;13.40;99.90;;;;;;5162194;27;20087;-73
2023/03/30 01:47:51;;;;;;;16.10;7.57;;;13.40;99.90;;;;;;5161870;27;20443;-73
2023/03/30 01:50:35;;;;;;;12.65;8.00;;;13.50;99.90;;;;;;5161784;27;20424;-73
2023/03/30 01:53:33;;;;;;;11.38;7.57;;;13.50;99.90;;;;;;5162083;27;20110;-73
2023/03/30 01:56:17;;;;;;;25.83;7.75;;;13.50;99.90;;;;;;5154110;27;20054;-74
2023/03/30 01:59:02;;;;;;;9.68;6.05;;;13.50;99.90;;;;;;5161965;27;20049;-73
2023/03/30 02:01:32;;;;;;;14.68;7.43;;;13.50;99.90;;;;;;5161868;27;20070;-73
2023/03/30 02:03:59;;;;;;;12.77;6.72;;;13.50;99.90;;;;;;5161581;27;20035;-73
2023/03/30 02:06:46;;;;;;;10.98;6.32;;;13.50;99.90;;;;;;5161670;27;20041;-73
2023/03/30 02:09:16;;;;;;;18.83;6.60;;;13.40;99.90;;;;;;5161788;27;20046;-73
2023/03/30 02:11:47;;;;;;;11.43;6.25;;;13.50;99.90;;;;;;5161677;27;20078;-73
2023/03/30 02:14:16;;;;;;;11.48;6.28;;;13.50;99.90;;;;;;5161674;27;20049;-73
2023/03/30 02:16:47;;;;;;;14.82;6.65;;;13.40;99.90;;;;;;5161502;27;20066;-73
2023/03/30 02:19:14;;;;;;;12.30;6.60;;;13.50;99.90;;;;;;5161520;27;20049;-73
2023/03/30 02:21:41;;;;;;;13.23;6.38;;;13.50;99.90;;;;;;5161480;27;20042;-73
2023/03/30 02:24:17;;;;;;;14.35;6.35;;;13.50;99.90;;;;;;5161446;27;20035;-73
2023/03/30 02:26:45;;;;;;;;;;;13.50;99.90;;;;;;5161565;27;20054;-73
2023/03/30 02:29:11;;;;;;;13.60;5.95;;;13.50;99.90;;;;;;5161366;27;19962;-73
2023/03/30 02:31:37;;;;;;;11.65;6.00;;;13.50;99.90;;;;;;5161307;27;20042;-73
2023/03/30 02:34:09;;;;;;;10.50;6.00;;;13.50;99.90;;;;;;5160915;27;20050;-73
2023/03/30 02:36:40;;;;;;;11.52;5.68;;;13.50;99.90;;;;;;5161168;27;20075;-73
2023/03/30 02:39:44;;;;;;;16.20;6.43;;;13.40;99.90;;;;;;5161138;27;20090;-73
2023/03/30 02:42:28;;;;;;;10.18;5.85;;;13.50;99.90;;;;;;5160743;27;20046;-73
2023/03/30 02:45:16;;;;;;;15.00;6.00;;;13.50;99.90;;;;;;5161010;27;20045;-73
2023/03/30 02:47:45;;;;;;;7.93;5.45;;;13.40;99.90;;;;;;5160740;27;20049;-73
2023/03/30 02:50:20;;;;;;;14.32;5.75;;;13.50;99.90;;;;;;5160905;27;20050;-73
2023/03/30 02:53:16;;;;;;;13.65;7.03;;;13.40;99.90;;;;;;5160352;27;20034;-73
2023/03/30 02:56:02;;;;;;;11.30;5.87;;;13.40;99.90;;;;;;5160878;27;20213;-73
2023/03/30 02:58:40;;;;;;;13.95;6.30;;;13.40;99.90;;;;;;5160450;27;20126;-73
2023/03/30 03:01:39;;;;;;;12.98;6.50;;;13.40;99.90;;;;;;5161082;27;20117;-73
2023/03/30 03:04:06;;;;;;;12.57;6.32;;;13.40;99.90;;;;;;5137870;27;20043;-73
2023/03/30 03:06:32;;;;;;;15.30;6.15;;;13.50;99.90;;;;;;5160612;27;20039;-73
2023/03/30 03:08:58;;;;;;;13.38;5.97;;;13.40;99.90;;;;;;5160570;27;20092;-73
2023/03/30 03:11:24;;;;;;;12.40;6.20;;;13.40;99.90;;;;;;5160533;27;20030;-73
2023/03/30 03:13:50;;;;;;;10.93;6.30;;;13.40;99.90;;;;;;5160742;27;20068;-73
2023/03/30 03:16:16;;;;;;;10.95;6.38;;;13.40;99.90;;;;;;5160302;27;20034;-73
2023/03/30 03:18:42;;;;;;;11.85;6.15;;;13.30;99.90;;;;;;5160046;27;20039;-73
2023/03/30 03:21:09;;;;;;;13.00;6.20;;;13.30;99.90;;;;;;5160322;27;20042;-72
2023/03/30 03:23:36;;;;;;;15.25;5.55;;;13.30;99.90;;;;;;5160281;27;20046;-73
2023/03/30 03:26:02;;;;;;;10.55;5.25;;;13.10;99.90;;;;;;5160226;27;20098;-73
2023/03/30 03:28:29;;;;;;;9.52;4.90;;;13.00;99.90;;;;;;5159744;27;20039;-73
2023/03/30 03:30:55;;;;;;;14.68;5.13;;;13.10;99.90;;;;;;5160130;27;20027;-73
2023/03/30 03:33:21;;;;;;;11.10;5.03;;;13.10;99.90;;;;;;5141742;27;20420;-73
2023/03/30 03:35:47;;;;;;;11.05;5.13;;;13.10;99.90;;;;;;5159945;27;20110;-73
2023/03/30 03:38:13;;;;;;;15.60;5.07;;;13.00;99.90;;;;;;5159666;27;20039;-73
2023/03/30 03:40:40;;;;;;;13.90;5.00;;;12.90;99.90;;;;;;5159928;27;20030;-73
2023/03/30 03:43:05;;;;;;;13.98;5.13;;;12.90;99.90;;;;;;5159895;27;20297;-73
2023/03/30 03:45:31;;;;;;;10.48;4.82;;;12.80;99.90;;;;;;5159838;27;20067;-73
2023/03/30 03:47:57;;;;;;;15.50;4.60;;;12.90;99.90;;;;;;5159786;27;20078;-73
2023/03/30 03:50:23;;;;;;;12.23;4.53;;;12.80;99.90;;;;;;5141479;27;20070;-73
2023/03/30 03:52:48;;;;;;;13.93;4.53;;;12.90;99.90;;;;;;5159693;27;20344;-73
2023/03/30 03:55:14;;;;;;;13.13;4.13;;;12.90;99.90;;;;;;5159338;27;20038;-72
2023/03/30 03:57:41;;;;;;;10.55;3.80;;;13.00;99.90;;;;;;5158707;27;20062;-73
2023/03/30 04:00:14;;;;;;;18.42;3.60;;;13.00;99.90;;;;;;5159238;27;20479;-74
2023/03/30 04:02:42;;;;;;;10.52;3.70;;;13.00;99.90;;;;;;5158903;27;20053;-73
2023/03/30 04:05:08;;;;;;;14.48;4.47;;;13.00;99.90;;;;;;5158982;27;20081;-73
2023/03/30 04:07:35;;;;;;;7.22;3.65;;;13.00;99.90;;;;;;5159443;27;20046;-73
2023/03/30 04:10:05;;;;;;;10.98;4.20;;;13.00;99.90;;;;;;5159154;27;20035;-73
2023/03/30 04:12:31;;;;;;;10.23;3.60;;;13.00;99.90;;;;;;5159294;27;20030;-73
2023/03/30 04:14:56;;;;;;;13.18;3.92;;;13.00;99.90;;;;;;5159279;27;20035;-73
2023/03/30 04:17:22;;;;;;;8.25;3.40;;;13.00;99.90;;;;;;5159137;27;20046;-74
2023/03/30 04:19:52;;;;;;;12.95;3.40;;;13.10;99.90;;;;;;5159160;27;20039;-73
2023/03/30 04:22:19;;;;;;;10.73;3.95;;;13.20;99.90;;;;;;5159129;27;20038;-73
2023/03/30 04:24:44;;;;;;;11.95;3.70;;;13.10;99.90;;;;;;5159117;27;20039;-73
2023/03/30 04:27:15;;;;;;;13.40;3.75;;;13.20;99.90;;;;;;5158614;27;20065;-73
2023/03/30 04:29:43;;;;;;;14.80;3.92;;;13.20;99.90;;;;;;5159102;27;20070;-72
2023/03/30 04:32:11;;;;;;;10.75;3.78;;;13.30;99.90;;;;;;5158951;27;20090;-73
2023/03/30 04:34:43;;;;;;;10.13;3.88;;;13.20;99.90;;;;;;5158628;27;20125;-73
2023/03/30 04:37:09;;;;;;;9.75;3.80;;;13.30;99.90;;;;;;5158889;27;20172;-73
2023/03/30 04:39:35;;;;;;;12.80;4.35;;;13.30;99.90;;;;;;5158560;27;20487;-73
2023/03/30 04:42:05;;;;;;;12.75;4.68;;;13.40;99.90;;;;;;5158808;27;20058;-73
2023/03/30 04:44:31;;;;;;;9.55;4.10;;;13.20;99.90;;;;;;5158445;27;20031;-73
2023/03/30 04:46:57;;;;;;;9.88;4.00;;;13.30;99.90;;;;;;5140274;27;20039;-73
2023/03/30 04:49:22;;;;;;;11.18;4.10;;;13.40;99.90;;;;;;5140330;27;20053;-73
2023/03/30 04:51:48;;;;;;;11.23;4.30;;;13.30;99.90;;;;;;5158608;27;20464;-73
2023/03/30 04:54:14;;;;;;;11.88;4.18;;;13.40;99.90;;;;;;5140512;27;20038;-73
2023/03/30 04:56:40;;;;;;;13.13;3.90;;;13.40;99.90;;;;;;5157870;27;20052;-73
2023/03/30 04:59:06;;;;;;;13.35;4.13;;;13.40;99.90;;;;;;5158583;27;20108;-73
2023/03/30 05:01:31;;;;;;;11.70;4.15;;;13.30;99.90;;;;;;5158267;27;20046;-73
2023/03/30 05:03:57;;;;;;;12.40;3.83;;;13.30;99.90;;;;;;5158560;27;20027;-73
2023/03/30 05:06:23;;;;;;;7.60;3.95;;;13.30;99.90;;;;;;5158196;27;20372;-73
2023/03/30 05:08:48;;;;;;;11.98;3.72;;;13.40;99.90;;;;;;5158516;27;20139;-73
2023/03/30 05:11:14;;;;;;;12.80;3.85;;;13.30;99.90;;;;;;5158482;27;20034;-73
2023/03/30 05:13:40;;;;;;;9.45;4.00;;;13.40;99.90;;;;;;5140125;27;20312;-73
2023/03/30 05:16:07;;;;;;;13.65;4.00;;;13.30;99.90;;;;;;5161458;27;20045;-73
2023/03/30 05:18:32;;;;;;;11.77;3.85;;;13.30;99.90;;;;;;5162685;27;20424;-73
2023/03/30 05:20:58;;;;;;;10.10;3.92;;;13.30;99.90;;;;;;5162386;27;20038;-73
2023/03/30 05:23:24;;;;;;;14.15;3.60;;;13.30;99.90;;;;;;5162616;27;20031;-73
2023/03/30 05:25:50;;;;;;;15.23;3.75;;;13.30;99.90;;;;;;5162440;27;20039;-73
2023/03/30 05:28:16;;;;;;;25.25;4.18;;;13.10;99.90;;;;;;5162081;27;20077;-73
2023/03/30 05:30:42;;;;;;;14.05;3.55;;;13.10;99.90;;;;;;5162499;27;20078;-73
2023/03/30 05:33:08;;;;;;;10.90;4.40;;;13.20;99.90;;;;;;5162421;27;20384;-73
2023/03/30 05:35:36;;;;;;;15.48;3.97;;;13.10;99.90;;;;;;5162201;27;20081;-73
2023/03/30 05:38:02;;;;;;;11.85;4.35;;;13.10;99.90;;;;;;5162151;27;20042;-72
2023/03/30 05:40:29;;;;;;;11.23;3.90;;;13.00;99.90;;;;;;5161815;27;20035;-72
2023/03/30 05:42:55;;;;;;;13.10;4.45;;;13.10;99.90;;;;;;5162122;27;20030;-73
2023/03/30 05:45:20;;;;;;;14.07;4.10;;;13.10;99.90;;;;;;5162036;27;20038;-73
2023/03/30 05:47:46;;;;;;;12.43;4.53;;;13.10;99.90;;;;;;5161656;27;20121;-73
2023/03/30 05:50:11;;;;;;;13.18;4.50;;;13.20;99.90;;;;;;5162630;27;20085;-73
2023/03/30 05:52:37;;;;;;;15.82;4.72;;;13.20;99.90;;;;;;5161728;27;20042;-73
2023/03/30 05:55:03;;;;;;;10.68;4.45;;;13.20;99.90;;;;;;5161981;27;20042;-73
2023/03/30 05:57:29;;;;;;;18.17;5.00;;;13.20;99.90;;;;;;5161093;27;20051;-73
2023/03/30 05:59:54;;;;;;;13.40;3.95;;;13.30;99.90;;;;;;5161937;27;20039;-72
2023/03/30 06:02:20;;;;;;;15.77;4.57;;;13.20;99.90;;;;;;5161491;27;20058;-73
2023/03/30 06:04:46;;;;;;;12.98;4.55;;;13.10;99.90;;;;;;5161797;27;20034;-73
2023/03/30 06:07:12;;;;;;;13.15;4.85;;;13.20;99.90;;;;;;5161804;27;20042;-73
2023/03/30 06:09:37;;;;;;;15.50;4.85;;;13.20;99.90;;;;;;5161759;27;20066;-73
2023/03/30 06:12:04;;;;;;;15.57;4.95;;;13.30;99.90;;;;;;5161393;27;20035;-73
2023/03/30 06:14:29;;;;;;;16.65;5.10;;;13.30;99.90;;;;;;5161638;27;20041;-73
2023/03/30 06:16:55;;;;;;;15.25;5.18;;;13.40;99.90;;;;;;5161564;27;20487;-73
2023/03/30 06:19:21;;;;;;;10.80;4.65;;;13.40;99.90;;;;;;5161637;27;20103;-73
2023/03/30 06:21:47;;;;;;;14.27;5.05;;;13.40;99.90;;;;;;5161492;27;20429;-73
2023/03/30 06:24:13;;;;;;;14.90;4.85;;;13.50;99.90;;;;;;5161424;27;20035;-72
2023/03/30 06:26:39;;;;;;;10.88;4.25;;;13.50;99.90;;;;;;5159710;27;20400;-74
2023/03/30 06:29:05;;;;;;;12.48;4.60;;;13.40;99.90;;;;;;5161367;27;20079;-74
2023/03/30 06:31:31;;;;;;;12.60;5.05;;;13.50;99.90;;;;;;5161293;27;20039;-69
2023/03/30 06:33:56;;;;;;;10.88;5.00;;;13.40;99.90;;;;;;5160957;27;20517;-70
2023/03/30 06:36:22;;;;;;;9.55;4.50;;;13.50;99.90;;;;;;5160343;27;20039;-72
2023/03/30 06:38:48;;;;;;;16.27;4.93;;;13.30;99.90;;;;;;5160463;27;20046;-72
2023/03/30 06:41:14;;;;;;;14.70;5.32;;;13.40;99.90;;;;;;5160508;27;20045;-72
2023/03/30 06:43:40;;;;;;;14.00;4.70;;;13.30;99.90;;;;;;5160115;27;20179;-72
2023/03/30 06:46:07;;;;;;;15.43;5.80;;;13.30;99.90;;;;;;5160522;27;20026;-72
2023/03/30 06:48:33;;;;;;;15.50;5.60;;;13.30;99.90;;;;;;5160504;27;20038;-72
2023/03/30 06:50:58;;;;;;;12.43;4.28;;;13.40;99.90;;;;;;5160211;27;20438;-72
2023/03/30 06:53:24;;;;;;;12.68;5.10;;;13.40;99.90;;;;;;5160498;27;20031;-72
2023/03/30 06:55:55;;;;;;;18.27;5.20;;;13.50;99.90;;;;;;5160188;27;20035;-71
2023/03/30 06:58:21;;;;;;;13.65;4.80;;;13.50;99.90;;;;;;5160467;27;20050;-72
2023/03/30 07:00:48;;;;;;;12.43;4.65;;;13.50;99.90;;;;;;5160788;27;20122;-71
2023/03/30 07:03:17;;;;;;;13.20;4.38;;;13.50;99.90;;;;;;5142089;27;20049;-71
2023/03/30 07:05:46;;;;;;;10.57;4.30;;;13.50;99.90;;;;;;5160673;27;20327;-71
2023/03/30 07:08:13;;;;;;;14.18;4.43;;;13.40;99.90;;;;;;5142334;27;20114;-71
2023/03/30 07:10:39;;;;;;;14.43;4.18;;;13.40;99.90;;;;;;5142036;27;20034;-72
2023/03/30 07:13:06;;;;;;;13.60;3.85;;;13.30;99.90;;;;;;5160524;27;20077;-71
2023/03/30 07:15:32;;;;;;;11.48;3.75;;;13.20;99.90;;;;;;5160464;27;20385;-72
2023/03/30 07:17:58;;;;;;;19.83;4.22;;;13.30;99.90;;;;;;5160329;27;20035;-71
2023/03/30 07:20:24;;;;;;;16.65;3.92;;;13.20;99.90;;;;;;5160025;27;20387;-71
2023/03/30 07:22:50;;;;;;;10.80;3.42;;;13.20;99.90;;;;;;5159994;27;20411;-71
2023/03/30 07:25:16;;;;;;;13.60;3.97;;;13.20;99.90;;;;;;5160256;27;20113;-71
2023/03/30 07:27:42;;;;;;;15.18;2.90;;;13.20;99.90;;;;;;5159793;27;20042;-71
2023/03/30 07:30:09;;;;;;;16.63;3.38;;;13.10;99.90;;;;;;5159804;27;20042;-71
2023/03/30 07:32:35;;;;;;;19.25;4.10;;;13.10;99.90;;;;;;5160110;27;20038;-71
2023/03/30 07:35:01;;;;;;;15.70;3.30;;;13.20;99.90;;;;;;5159766;27;20039;-71
2023/03/30 07:37:27;;;;;;;14.02;3.55;;;13.20;99.90;;;;;;5159549;27;20438;-72
2023/03/30 07:39:55;;;;;;;15.45;4.10;;;13.20;99.90;;;;;;5159703;27;20042;-73
2023/03/30 07:42:20;;;;;;;13.80;3.30;;;13.20;99.90;;;;;;5159915;27;20087;-72
2023/03/30 07:44:46;;;;;;;19.42;4.40;;;13.10;99.90;;;;;;5159915;27;20034;-72
2023/03/30 07:47:12;;;;;;;17.42;3.42;;;13.10;99.90;;;;;;5159893;27;20042;-72
2023/03/30 07:49:37;;;;;;;26.63;3.65;;;13.00;99.90;;;;;;5141224;27;20321;-74
2023/03/30 07:52:03;;;;;;;38.05;4.18;;;13.00;99.90;;;;;;5159692;27;20066;-73
2023/03/30 07:54:29;;;;;;;25.35;4.13;;;12.90;99.90;;;;;;5159665;27;20391;-72
2023/03/30 07:56:55;;;;;;;19.67;4.22;;;12.90;99.90;;;;;;5158844;27;20466;-72
2023/03/30 07:59:22;;;;;;;19.23;3.53;;;12.90;99.90;;;;;;5159249;27;20366;-72
2023/03/30 08:01:53;;;;;;;27.60;4.65;;;12.80;99.90;;;;;;5159574;27;20042;-73
2023/03/30 08:04:20;;;;;;;22.60;3.60;;;12.70;99.90;;;;;;5159527;27;20030;-72
2023/03/30 08:06:46;;;;;;;22.08;3.85;;;12.70;99.90;;;;;;5159220;27;20039;-72
2023/03/30 08:09:12;;;;;;;30.10;5.10;;;12.70;99.90;;;;;;5159089;27;20411;-72
2023/03/30 08:11:38;;;;;;;21.65;4.45;;;12.70;99.90;;;;;;5159356;27;20046;-70
2023/03/30 08:14:04;;;;;;;23.13;4.40;;;12.70;99.90;;;;;;5159282;27;20039;-72
2023/03/30 08:16:31;;;;;;;23.65;4.22;;;12.60;99.90;;;;;;5159197;27;20094;-72
2023/03/30 08:18:56;;;;;;;23.02;4.03;;;12.50;99.90;;;;;;5140871;27;20090;-72
2023/03/30 08:21:24;;;;;;;25.08;4.07;;;12.50;99.90;;;;;;5140974;27;20042;-72
2023/03/30 08:23:51;;;;;;;24.20;4.07;;;12.60;99.90;;;;;;5158924;27;20031;-72
2023/03/30 08:26:17;;;;;;;27.10;3.85;;;12.50;99.90;;;;;;5159079;27;20038;-72
2023/03/30 08:28:42;;;;;;;22.15;3.75;;;12.60;99.90;;;;;;5158374;27;20034;-72
2023/03/30 08:31:11;;;;;;;32.38;5.38;;;12.50;99.90;;;;;;5158971;27;20039;-72
2023/03/30 08:33:37;;;;;;;28.67;4.10;;;12.40;99.90;;;;;;5158949;27;20353;-71
2023/03/30 08:36:03;;;;;;;30.80;4.72;;;12.50;99.90;;;;;;5158806;27;20030;-72
2023/03/30 08:38:29;;;;;;;20.80;4.22;;;12.40;99.90;;;;;;5158719;27;20038;-72
2023/03/30 08:40:55;;;;;;;25.50;4.55;;;12.50;99.90;;;;;;5158928;27;20030;-72
2023/03/30 08:43:49;;;;;;;29.42;5.25;;;12.40;99.90;;;;;;5158800;27;20031;-71
2023/03/30 08:46:17;;;;;;;22.15;5.18;;;12.30;99.90;;;;;;5148916;27;20492;-71
2023/03/30 08:48:44;;;;;;;28.10;4.30;;;12.20;99.90;;;;;;5158669;27;20085;-76
2023/03/30 08:51:32;;;;;;;27.08;5.00;;;12.10;99.90;;;;;;5158030;27;20043;-72
2023/03/30 08:54:00;;;;;;;23.73;4.55;;;12.20;99.90;;;;;;5158705;27;20110;-71
2023/03/30 08:56:30;;;;;;;29.80;5.38;;;12.30;99.90;;;;;;5157955;27;20440;-71
2023/03/30 08:59:11;;;;;;;34.38;5.97;;;12.20;99.90;;;;;;5158191;27;20398;-72
2023/03/30 09:01:56;;;;;;;37.85;4.88;;;12.30;99.90;;;;;;5158596;27;20035;-72
2023/03/30 09:04:28;;;;;;;33.55;5.20;;;12.30;99.90;;;;;;5158248;27;20373;-71
2023/03/30 09:06:53;;;;;;;26.25;4.60;;;12.40;99.90;;;;;;5158566;27;20038;-72
2023/03/30 09:09:23;;;;;;;37.88;5.22;;;12.50;99.90;;;;;;5158484;27;20099;-72
2023/03/30 09:12:15;;;;;;;36.95;5.53;;;12.50;99.90;;;;;;5158458;27;20034;-70
2023/03/30 09:14:47;;;;;;;28.45;4.75;;;12.60;99.90;;;;;;5139604;27;20121;-70
2023/03/30 09:17:20;;;;;;;35.85;4.63;;;12.70;99.90;;;;;;5158380;27;20412;-73
2023/03/30 09:19:56;;;;;;;31.92;4.38;;;12.70;99.90;;;;;;5139789;27;20087;-72
2023/03/30 09:22:27;;;;;;;29.10;4.37;;;12.80;99.90;;;;;;5139698;27;20488;-72
2023/03/30 09:24:54;;;;;;;24.65;4.38;;;12.80;99.90;;;;;;5158351;27;20074;-70
2023/03/30 09:27:58;;;;;;;27.55;3.70;;;12.80;99.90;;;;;;5157901;27;20047;-70
2023/03/30 09:30:50;;;;;;;31.60;4.55;;;12.90;99.90;;;;;;5054152;28;20381;-70
2023/03/30 09:33:36;;;;;;;29.80;4.50;;;13.00;99.90;;;;;;5054247;28;20453;-70
2023/03/30 09:36:16;;;;;;;24.30;3.35;;;13.10;99.90;;;;;;5134839;27;20481;-70
2023/03/30 09:38:44;;;;;;;23.38;3.40;;;13.20;99.90;;;;;;5158215;27;20099;-70
2023/03/30 09:41:27;;;;;;;41.80;4.68;;;13.30;99.90;;;;;;5158214;27;20031;-70
2023/03/30 09:43:55;;;;;;;22.25;3.05;;;13.40;99.90;;;;;;5158207;27;20053;-70
2023/03/30 09:46:21;;;;;;;20.38;2.83;;;13.50;99.90;;;;;;5158118;27;20034;-70
2023/03/30 09:48:48;;;;;;;20.25;2.97;;;13.40;99.90;;;;;;5157783;27;20039;-70
2023/03/30 09:51:14;;;;;;;23.40;3.80;;;13.30;99.90;;;;;;5158049;27;20042;-70
2023/03/30 09:53:42;;;;;;;18.50;2.80;;;13.30;99.90;;;;;;5158046;27;20126;-70
2023/03/30 09:56:16;;;;;;;13.45;2.50;;;13.10;99.90;;;;;;5158014;27;20095;-70
2023/03/30 09:58:42;;;;;;;20.75;2.90;;;13.20;99.90;;;;;;5157309;27;20104;-70
2023/03/30 10:01:17;;;;;;;20.02;3.30;;;13.10;99.90;;;;;;5157994;27;20043;-69
2023/03/30 10:03:44;;;;;;;22.48;2.97;;;13.00;99.90;;;;;;5161849;27;20041;-70
2023/03/30 10:06:15;;;;;;;17.00;3.20;;;13.10;99.90;;;;;;5161854;27;20114;-70
2023/03/30 10:08:53;;;;;;;29.75;4.28;;;13.00;99.90;;;;;;5161751;27;20110;-70
2023/03/30 10:11:29;;;;;;;22.67;3.75;;;13.00;99.90;;;;;;5161482;27;20415;-70
2023/03/30 10:13:57;;;;;;;19.63;2.67;;;12.90;99.90;;;;;;5161507;27;20416;-70
2023/03/30 10:16:25;;;;;;;25.52;3.70;;;12.90;99.90;;;;;;5161549;27;20043;-70
2023/03/30 10:18:54;;;;;;;22.00;3.00;;;12.90;99.90;;;;;;5161372;27;20042;-70
2023/03/30 10:21:26;;;;;;;18.67;2.28;;;12.90;99.90;;;;;;5161256;27;20045;-69
2023/03/30 10:24:20;;;;;;;18.73;2.45;;;12.90;99.90;;;;;;5161475;27;20351;-70
2023/03/30 10:26:49;;;;;;;21.42;3.08;;;12.90;99.90;;;;;;5160604;27;20424;-71
2023/03/30 10:29:21;;;;;;;16.25;2.70;;;13.00;99.90;;;;;;5161404;27;20084;-70
2023/03/30 10:31:51;;;;;;;19.55;2.78;;;13.10;99.90;;;;;;5161045;27;20424;-70
2023/03/30 10:34:31;;;;;;;21.10;2.85;;;13.00;99.90;;;;;;5161301;27;20312;-70
2023/03/30 10:36:57;;;;;;;24.08;3.40;;;12.90;99.90;;;;;;5161136;27;20071;-70
2023/03/30 10:39:34;;;;;;;23.05;3.28;;;12.80;99.90;;;;;;5160638;27;20422;-70
2023/03/30 10:42:03;;;;;;;18.35;3.60;;;12.70;99.90;;;;;;5161203;27;20160;-69
2023/03/30 10:44:41;;;;;;;22.35;3.28;;;12.80;99.90;;;;;;5161124;27;20031;-69
2023/03/30 10:47:33;;;;;;;22.70;2.83;;;12.70;99.90;;;;;;5142754;27;20423;-71
2023/03/30 10:50:20;;;;;;;27.10;4.47;;;12.70;99.90;;;;;;5160703;27;20071;-70
2023/03/30 10:52:45;;;;;;;;;;;12.70;99.90;;;;;;5161542;27;20045;-70
2023/03/30 10:55:40;;;;;;;29.47;4.10;;;12.80;99.90;;;;;;5142886;27;19915;-70
2023/03/30 10:58:37;;;;;;;20.00;3.10;;;12.70;99.90;;;;;;5137951;27;20047;-69
2023/03/30 11:01:15;;;;;;;22.40;3.25;;;12.80;99.90;;;;;;5142170;27;20319;-70
2023/03/30 11:03:46;;;;;;;23.13;3.53;;;12.80;99.90;;;;;;5160760;27;20049;-70
2023/03/30 11:06:21;;;;;;;24.40;3.75;;;12.80;99.90;;;;;;5160759;27;20045;-72
2023/03/30 11:08:50;;;;;;;30.75;4.60;;;12.90;99.90;;;;;;5160733;27;20327;-71
2023/03/30 11:11:21;;;;;;;29.90;3.60;;;13.00;99.90;;;;;;5160547;27;20082;-73
2023/03/30 11:13:55;;;;;;;21.08;3.33;;;13.00;99.90;;;;;;5160135;27;20042;-72
2023/03/30 11:16:30;;;;;;;21.17;3.40;;;13.00;99.90;;;;;;5141806;27;20042;-72
2023/03/30 11:19:02;;;;;;;29.58;4.00;;;13.00;99.90;;;;;;5141837;27;20370;-72
2023/03/30 11:22:08;;;;;;;25.50;3.67;;;13.00;99.90;;;;;;5160380;27;20038;-72
2023/03/30 11:24:35;;;;;;;32.85;4.47;;;13.00;99.90;;;;;;5095509;27;20089;-72
2023/03/30 11:27:16;;;;;;;22.98;3.53;;;12.90;99.90;;;;;;5153741;27;20058;-73
2023/03/30 11:30:06;;;;;;;28.30;3.60;;;13.00;99.90;;;;;;5147090;27;20099;-73
2023/03/30 11:32:45;;;;;;;28.40;4.38;;;13.10;99.90;;;;;;5141442;27;20111;-72
2023/03/30 11:35:29;;;;;;;24.95;3.78;;;13.20;99.90;;;;;;5160002;27;20327;-73
2023/03/30 11:38:16;;;;;;;25.45;3.42;;;13.20;99.90;;;;;;5158991;27;20054;-73
2023/03/30 11:40:56;;;;;;;33.20;4.07;;;13.20;99.90;;;;;;5159828;27;20031;-71
2023/03/30 11:43:25;;;;;;;23.45;3.65;;;13.20;99.90;;;;;;5159651;27;20042;-71
2023/03/30 11:46:18;;;;;;;30.67;3.78;;;13.40;99.90;;;;;;5147439;27;20062;-71
2023/03/30 11:49:01;;;;;;;21.55;3.40;;;13.60;99.90;;;;;;5138683;27;20427;-71
2023/03/30 11:51:41;;;;;;;20.10;3.60;;;13.70;99.90;;;;;;5138896;27;20043;-70
2023/03/30 11:54:44;;;;;;;19.92;3.13;;;13.70;99.90;;;;;;5143231;27;20068;-71
2023/03/30 11:57:28;;;;;;;26.40;4.15;;;13.90;99.90;;;;;;5105645;27;20057;-71
2023/03/30 12:00:22;;;;;;;18.38;3.10;;;13.90;99.90;;;;;;5159459;27;20364;-69
2023/03/30 12:03:12;;;;;;;25.42;3.13;;;13.90;99.90;;;;;;5159250;27;20042;-74
2023/03/30 12:05:51;;;;;;;16.98;3.03;;;13.80;99.90;;;;;;5158860;27;20454;-67
2023/03/30 12:08:53;;;;;;;20.88;3.03;;;13.80;99.90;;;;;;5159278;27;20046;-78
2023/03/30 12:11:44;;;;;;;21.60;3.17;;;13.90;99.90;;;;;;5126513;27;20060;-70
2023/03/30 12:14:39;;;;;;;21.83;3.40;;;14.00;99.90;;;;;;5140570;27;20041;-70
2023/03/30 12:17:44;;;;;;;22.40;3.58;;;13.90;99.90;;;;;;5137983;27;20039;-70
2023/03/30 12:20:28;;;;;;;25.70;3.33;;;14.00;99.90;;;;;;5134677;27;20039;-69
2023/03/30 12:23:10;;;;;;;24.67;3.10;;;14.00;99.90;;;;;;5138563;27;20038;-73
2023/03/30 12:26:03;;;;;;;24.15;2.78;;;14.00;99.90;;;;;;5137697;27;20050;-70
2023/03/30 12:28:59;;;;;;;25.85;3.47;;;14.20;99.90;;;;;;5137954;27;20433;-68
2023/03/30 12:31:46;;;;;;;23.35;3.10;;;14.40;99.90;;;;;;5138368;27;20051;-72
2023/03/30 12:34:12;;;;;;;17.42;2.80;;;14.80;99.90;;;;;;5138252;27;20082;-72
2023/03/30 12:36:45;;;;;;;18.50;3.30;;;15.00;99.90;;;;;;5138084;27;20040;-70
2023/03/30 12:39:20;;;;;;;24.10;3.67;;;14.80;99.90;;;;;;5137902;27;20511;-70
2023/03/30 12:41:56;;;;;;;20.67;2.67;;;14.60;99.90;;;;;;5137475;27;20166;-73
2023/03/30 12:44:42;;;;;;;22.42;3.50;;;14.80;99.90;;;;;;5138143;27;20447;-73
2023/03/30 12:47:55;;;;;;;28.80;2.85;;;14.90;99.90;;;;;;5138116;27;20336;-74
2023/03/30 12:50:42;;;;;;;30.42;3.67;;;14.90;99.90;;;;;;5102021;27;20047;-71
2023/03/30 12:53:20;;;;;;;17.63;3.03;;;14.80;99.90;;;;;;5137850;27;20035;-73
2023/03/30 12:55:53;;;;;;;21.30;2.75;;;14.60;99.90;;;;;;5137985;27;20427;-69
2023/03/30 12:58:46;;;;;;;19.05;3.00;;;14.60;99.90;;;;;;5119058;27;20058;-70
2023/03/30 13:01:36;;;;;;;24.60;3.47;;;14.70;99.90;;;;;;5137859;27;20122;-69
2023/03/30 13:04:08;;;;;;;20.23;3.30;;;14.50;99.90;;;;;;5137898;27;20039;-69